Butare, Rwanda

2:23 PM CAT on August 31, 2015 (GMT +0200)
Gregoire Kayibanda | | Change Station
CLOSE
Current Station
Airport
Location: Kigali,
Elevation: 4911 ft
Nearby Weather Stations

Elev 4911 ft 1.97 °S, 30.13 °E | Updated 23 minutes ago

Mostly Cloudy
Mostly Cloudy
86 °F
Feels Like 85 °F
N
12
Wind Variable Wind from East

Today
High -- | Low -- °F
--% Chance of Precip.
Yesterday
High -- | Low -- °F
Precip. -- in
5:59 AM 6:03 PM
Waning Gibbous, 95% visible
Pressure 30.09 in
Visibility 6.2 miles
Clouds Few 2300 ft
Mostly Cloudy 2500 ft
Heat Index 85 °F
Dew Point 57 °F
Humidity 37%
Rainfall 0.00 in
Snow Depth Not available.
UV 7 out of 12
Pollen Not available.
Air Quality Not available.
Flu Activity Not available.
METAR HRYR 311200Z 10010KT 9999 FEW023CB BKN025 30/14 Q1019 TEMPO TS
Pressure 30.09 in
Visibility 6.2 miles
Clouds Few 2300 ft
Mostly Cloudy 2500 ft
Heat Index 85 °F
Dew Point 57 °F
Humidity 37%
Rainfall 0.00 in
Snow Depth Not available.
UV 7 out of 12
Pollen Not available.
Air Quality Not available.
Flu Activity Not available.
METAR HRYR 311200Z 10010KT 9999 FEW023CB BKN025 30/14 Q1019 TEMPO TS

10-Day Weather Forecast

×

Almanac

Astronomy

Aug. 31, 2015 Rise Set
Actual Time
Civil Twilight
Nautical Twilight
Astronomical Twilight
Moon
Length of Visible Light
Length of Day
Tomorrow will be .
, % of the Moon is Illuminated

Today's Extremes

Country Highs Country Lows

Community

WunderPhotos

Upload Photos

1,851,222 photos uploaded!

WunderBlogs® & News

Nearby

Air Quality

  Air Quality AQ Index Pollutant
Not available.

Snow Depth

Station Depth Elevation

Earthquake Activity

City Distance Mag. Time & Date
Minimum magnitude displayed is 2.5.

Coastal Water Temperatures

Place Temperature

Stations

Nearby Weather Stations

Station Location Temp. Windchill Dew Point Humidity Wind Precip. Elev Updated Type